sensor_id;sensor_type;location;lat;lon;timestamp;P1;durP1;ratioP1;P2;durP2;ratioP2
17171;SDS011;8701;50.150;8.756;2023-02-16T00:01:11;50.97;;;21.87;;
17171;SDS011;8701;50.150;8.756;2023-02-16T00:05:21;51.87;;;22.60;;
17171;SDS011;8701;50.150;8.756;2023-02-16T00:09:26;52.90;;;23.40;;
17171;SDS011;8701;50.150;8.756;2023-02-16T00:13:28;51.07;;;23.93;;
17171;SDS011;8701;50.150;8.756;2023-02-16T00:17:52;55.87;;;23.53;;
17171;SDS011;8701;50.150;8.756;2023-02-16T00:21:57;63.20;;;26.63;;
17171;SDS011;8701;50.150;8.756;2023-02-16T00:26:00;61.17;;;24.20;;
17171;SDS011;8701;50.150;8.756;2023-02-16T00:30:05;60.23;;;25.10;;
17171;SDS011;8701;50.150;8.756;2023-02-16T00:34:27;61.27;;;25.13;;
17171;SDS011;8701;50.150;8.756;2023-02-16T00:38:31;50.63;;;23.00;;
17171;SDS011;8701;50.150;8.756;2023-02-16T00:42:35;58.17;;;24.83;;
17171;SDS011;8701;50.150;8.756;2023-02-16T00:46:39;56.47;;;25.77;;
17171;SDS011;8701;50.150;8.756;2023-02-16T00:50:43;54.83;;;23.73;;
17171;SDS011;8701;50.150;8.756;2023-02-16T00:54:45;55.33;;;24.30;;
17171;SDS011;8701;50.150;8.756;2023-02-16T00:58:48;55.67;;;25.10;;
17171;SDS011;8701;50.150;8.756;2023-02-16T01:02:54;59.50;;;24.60;;
17171;SDS011;8701;50.150;8.756;2023-02-16T01:07:00;62.97;;;26.20;;
17171;SDS011;8701;50.150;8.756;2023-02-16T01:11:20;68.30;;;26.63;;
17171;SDS011;8701;50.150;8.756;2023-02-16T01:15:24;65.93;;;27.13;;
17171;SDS011;8701;50.150;8.756;2023-02-16T01:19:27;61.60;;;27.83;;
17171;SDS011;8701;50.150;8.756;2023-02-16T01:23:31;58.83;;;26.03;;
17171;SDS011;8701;50.150;8.756;2023-02-16T01:27:34;55.63;;;23.57;;
17171;SDS011;8701;50.150;8.756;2023-02-16T01:31:38;56.23;;;25.17;;
17171;SDS011;8701;50.150;8.756;2023-02-16T01:35:41;60.70;;;25.07;;
17171;SDS011;8701;50.150;8.756;2023-02-16T01:39:44;55.23;;;23.83;;
17171;SDS011;8701;50.150;8.756;2023-02-16T01:43:49;55.60;;;23.87;;
17171;SDS011;8701;50.150;8.756;2023-02-16T01:48:05;53.10;;;23.20;;
17171;SDS011;8701;50.150;8.756;2023-02-16T01:52:10;53.13;;;23.13;;
17171;SDS011;8701;50.150;8.756;2023-02-16T01:56:18;55.73;;;23.50;;
17171;SDS011;8701;50.150;8.756;2023-02-16T02:05:14;56.33;;;23.07;;
17171;SDS011;8701;50.150;8.756;2023-02-16T02:09:42;60.40;;;22.23;;
17171;SDS011;8701;50.150;8.756;2023-02-16T02:13:54;56.47;;;23.30;;
17171;SDS011;8701;50.150;8.756;2023-02-16T02:18:02;59.07;;;23.53;;
17171;SDS011;8701;50.150;8.756;2023-02-16T02:22:12;55.40;;;22.70;;
17171;SDS011;8701;50.150;8.756;2023-02-16T02:31:15;60.37;;;23.20;;
17171;SDS011;8701;50.150;8.756;2023-02-16T02:35:31;50.63;;;20.97;;
17171;SDS011;8701;50.150;8.756;2023-02-16T02:39:45;57.00;;;23.27;;
17171;SDS011;8701;50.150;8.756;2023-02-16T02:43:59;57.20;;;24.33;;
17171;SDS011;8701;50.150;8.756;2023-02-16T02:48:08;54.60;;;23.70;;
17171;SDS011;8701;50.150;8.756;2023-02-16T02:52:10;65.93;;;24.73;;
17171;SDS011;8701;50.150;8.756;2023-02-16T02:56:13;69.63;;;25.63;;
17171;SDS011;8701;50.150;8.756;2023-02-16T03:00:37;58.00;;;23.07;;
17171;SDS011;8701;50.150;8.756;2023-02-16T03:04:44;55.40;;;21.40;;
17171;SDS011;8701;50.150;8.756;2023-02-16T03:08:49;53.53;;;22.20;;
17171;SDS011;8701;50.150;8.756;2023-02-16T03:12:55;50.37;;;21.57;;
17171;SDS011;8701;50.150;8.756;2023-02-16T03:17:01;54.77;;;22.33;;
17171;SDS011;8701;50.150;8.756;2023-02-16T03:21:24;55.97;;;24.33;;
17171;SDS011;8701;50.150;8.756;2023-02-16T03:25:46;71.23;;;25.30;;
17171;SDS011;8701;50.150;8.756;2023-02-16T03:30:08;48.60;;;20.23;;
17171;SDS011;8701;50.150;8.756;2023-02-16T03:34:14;58.53;;;22.57;;
17171;SDS011;8701;50.150;8.756;2023-02-16T03:38:17;51.37;;;21.67;;
17171;SDS011;8701;50.150;8.756;2023-02-16T03:42:20;56.03;;;20.40;;
17171;SDS011;8701;50.150;8.756;2023-02-16T03:46:23;54.57;;;22.03;;
17171;SDS011;8701;50.150;8.756;2023-02-16T03:50:28;49.67;;;21.70;;
17171;SDS011;8701;50.150;8.756;2023-02-16T03:54:30;52.57;;;20.60;;
17171;SDS011;8701;50.150;8.756;2023-02-16T03:58:33;43.07;;;19.40;;
17171;SDS011;8701;50.150;8.756;2023-02-16T04:02:35;56.10;;;23.50;;
17171;SDS011;8701;50.150;8.756;2023-02-16T04:06:39;55.73;;;21.90;;
17171;SDS011;8701;50.150;8.756;2023-02-16T04:10:42;53.43;;;22.50;;
17171;SDS011;8701;50.150;8.756;2023-02-16T04:14:45;53.03;;;21.50;;
17171;SDS011;8701;50.150;8.756;2023-02-16T04:18:48;54.63;;;22.50;;
17171;SDS011;8701;50.150;8.756;2023-02-16T04:22:52;57.30;;;22.23;;
17171;SDS011;8701;50.150;8.756;2023-02-16T04:31:00;47.57;;;20.77;;
17171;SDS011;8701;50.150;8.756;2023-02-16T04:35:02;47.90;;;21.50;;
17171;SDS011;8701;50.150;8.756;2023-02-16T04:39:07;44.50;;;20.07;;
17171;SDS011;8701;50.150;8.756;2023-02-16T04:43:09;46.50;;;20.70;;
17171;SDS011;8701;50.150;8.756;2023-02-16T04:47:12;43.73;;;20.30;;
17171;SDS011;8701;50.150;8.756;2023-02-16T04:51:14;45.80;;;20.57;;
17171;SDS011;8701;50.150;8.756;2023-02-16T04:55:18;39.87;;;19.43;;
17171;SDS011;8701;50.150;8.756;2023-02-16T04:59:24;43.83;;;20.20;;
17171;SDS011;8701;50.150;8.756;2023-02-16T05:03:26;43.20;;;20.60;;
17171;SDS011;8701;50.150;8.756;2023-02-16T05:07:29;46.77;;;21.47;;
17171;SDS011;8701;50.150;8.756;2023-02-16T05:11:39;44.80;;;21.20;;
17171;SDS011;8701;50.150;8.756;2023-02-16T05:15:59;46.67;;;19.60;;
17171;SDS011;8701;50.150;8.756;2023-02-16T05:20:01;43.03;;;20.33;;
17171;SDS011;8701;50.150;8.756;2023-02-16T05:24:04;43.53;;;20.30;;
17171;SDS011;8701;50.150;8.756;2023-02-16T05:28:09;35.93;;;16.97;;
17171;SDS011;8701;50.150;8.756;2023-02-16T05:32:11;43.73;;;18.87;;
17171;SDS011;8701;50.150;8.756;2023-02-16T05:36:14;41.77;;;19.83;;
17171;SDS011;8701;50.150;8.756;2023-02-16T05:40:16;41.97;;;20.00;;
17171;SDS011;8701;50.150;8.756;2023-02-16T05:44:20;39.23;;;19.97;;
17171;SDS011;8701;50.150;8.756;2023-02-16T05:48:22;29.73;;;16.30;;
17171;SDS011;8701;50.150;8.756;2023-02-16T05:52:25;45.47;;;20.00;;
17171;SDS011;8701;50.150;8.756;2023-02-16T05:56:28;37.00;;;18.80;;
17171;SDS011;8701;50.150;8.756;2023-02-16T06:00:32;50.33;;;20.30;;
17171;SDS011;8701;50.150;8.756;2023-02-16T06:04:35;44.60;;;19.10;;
17171;SDS011;8701;50.150;8.756;2023-02-16T06:08:38;40.87;;;19.37;;
17171;SDS011;8701;50.150;8.756;2023-02-16T06:12:40;44.77;;;19.37;;
17171;SDS011;8701;50.150;8.756;2023-02-16T06:16:45;38.63;;;18.30;;
17171;SDS011;8701;50.150;8.756;2023-02-16T06:20:48;37.10;;;18.87;;
17171;SDS011;8701;50.150;8.756;2023-02-16T06:24:51;48.27;;;20.63;;
17171;SDS011;8701;50.150;8.756;2023-02-16T06:28:59;41.70;;;19.57;;
17171;SDS011;8701;50.150;8.756;2023-02-16T06:33:03;40.40;;;18.53;;
17171;SDS011;8701;50.150;8.756;2023-02-16T06:37:06;42.97;;;19.90;;
17171;SDS011;8701;50.150;8.756;2023-02-16T06:41:10;42.73;;;19.93;;
17171;SDS011;8701;50.150;8.756;2023-02-16T06:45:12;44.67;;;19.70;;
17171;SDS011;8701;50.150;8.756;2023-02-16T06:49:17;44.90;;;19.33;;
17171;SDS011;8701;50.150;8.756;2023-02-16T06:53:24;38.90;;;19.10;;
17171;SDS011;8701;50.150;8.756;2023-02-16T06:57:26;42.23;;;20.10;;
17171;SDS011;8701;50.150;8.756;2023-02-16T07:01:29;37.03;;;19.10;;
17171;SDS011;8701;50.150;8.756;2023-02-16T07:05:33;37.83;;;18.50;;
17171;SDS011;8701;50.150;8.756;2023-02-16T07:09:35;36.10;;;17.47;;
17171;SDS011;8701;50.150;8.756;2023-02-16T07:21:55;42.83;;;19.50;;
17171;SDS011;8701;50.150;8.756;2023-02-16T07:25:57;40.53;;;18.80;;
17171;SDS011;8701;50.150;8.756;2023-02-16T07:30:02;41.37;;;17.87;;
17171;SDS011;8701;50.150;8.756;2023-02-16T07:34:06;48.60;;;18.63;;
17171;SDS011;8701;50.150;8.756;2023-02-16T07:38:11;35.43;;;17.93;;
17171;SDS011;8701;50.150;8.756;2023-02-16T07:42:14;35.53;;;17.00;;
17171;SDS011;8701;50.150;8.756;2023-02-16T07:46:21;44.10;;;18.60;;
17171;SDS011;8701;50.150;8.756;2023-02-16T07:50:29;37.80;;;17.20;;
17171;SDS011;8701;50.150;8.756;2023-02-16T07:54:35;31.77;;;16.50;;
17171;SDS011;8701;50.150;8.756;2023-02-16T07:58:38;29.97;;;16.30;;
17171;SDS011;8701;50.150;8.756;2023-02-16T08:02:40;28.83;;;15.40;;
17171;SDS011;8701;50.150;8.756;2023-02-16T08:06:42;33.07;;;16.90;;
17171;SDS011;8701;50.150;8.756;2023-02-16T08:10:47;29.77;;;16.77;;
17171;SDS011;8701;50.150;8.756;2023-02-16T08:14:49;31.20;;;15.83;;
17171;SDS011;8701;50.150;8.756;2023-02-16T08:18:51;31.13;;;16.83;;
17171;SDS011;8701;50.150;8.756;2023-02-16T08:22:55;27.90;;;14.97;;
17171;SDS011;8701;50.150;8.756;2023-02-16T08:27:00;29.63;;;15.97;;
17171;SDS011;8701;50.150;8.756;2023-02-16T08:31:05;36.60;;;17.83;;
17171;SDS011;8701;50.150;8.756;2023-02-16T08:35:08;29.40;;;16.13;;
17171;SDS011;8701;50.150;8.756;2023-02-16T08:39:11;30.50;;;15.43;;
17171;SDS011;8701;50.150;8.756;2023-02-16T08:43:16;26.90;;;15.90;;
17171;SDS011;8701;50.150;8.756;2023-02-16T08:47:19;28.70;;;14.87;;
17171;SDS011;8701;50.150;8.756;2023-02-16T08:51:21;29.40;;;15.53;;
17171;SDS011;8701;50.150;8.756;2023-02-16T08:55:25;28.87;;;15.30;;
17171;SDS011;8701;50.150;8.756;2023-02-16T08:59:32;27.10;;;15.70;;
17171;SDS011;8701;50.150;8.756;2023-02-16T09:03:35;28.17;;;14.90;;
17171;SDS011;8701;50.150;8.756;2023-02-16T09:07:38;27.60;;;15.20;;
17171;SDS011;8701;50.150;8.756;2023-02-16T09:11:40;28.13;;;14.57;;
17171;SDS011;8701;50.150;8.756;2023-02-16T09:15:44;24.17;;;14.90;;
17171;SDS011;8701;50.150;8.756;2023-02-16T09:19:47;28.90;;;15.33;;
17171;SDS011;8701;50.150;8.756;2023-02-16T09:23:49;27.30;;;15.40;;
17171;SDS011;8701;50.150;8.756;2023-02-16T09:27:54;28.63;;;16.33;;
17171;SDS011;8701;50.150;8.756;2023-02-16T09:31:57;27.00;;;13.03;;
17171;SDS011;8701;50.150;8.756;2023-02-16T09:36:02;27.33;;;16.00;;
17171;SDS011;8701;50.150;8.756;2023-02-16T09:40:06;25.27;;;13.67;;
17171;SDS011;8701;50.150;8.756;2023-02-16T09:44:12;26.20;;;15.63;;
17171;SDS011;8701;50.150;8.756;2023-02-16T09:48:27;26.33;;;15.40;;
17171;SDS011;8701;50.150;8.756;2023-02-16T09:52:38;29.70;;;16.13;;
17171;SDS011;8701;50.150;8.756;2023-02-16T09:56:45;25.00;;;15.27;;
17171;SDS011;8701;50.150;8.756;2023-02-16T10:00:53;26.10;;;14.83;;
17171;SDS011;8701;50.150;8.756;2023-02-16T10:05:09;24.50;;;14.47;;
17171;SDS011;8701;50.150;8.756;2023-02-16T10:09:17;27.80;;;15.57;;
17171;SDS011;8701;50.150;8.756;2023-02-16T10:13:22;31.30;;;17.10;;
17171;SDS011;8701;50.150;8.756;2023-02-16T10:17:40;28.83;;;15.27;;
17171;SDS011;8701;50.150;8.756;2023-02-16T10:21:48;27.13;;;15.47;;
17171;SDS011;8701;50.150;8.756;2023-02-16T10:25:55;24.73;;;14.77;;
17171;SDS011;8701;50.150;8.756;2023-02-16T10:30:01;31.00;;;16.20;;
17171;SDS011;8701;50.150;8.756;2023-02-16T10:34:18;29.13;;;16.70;;
17171;SDS011;8701;50.150;8.756;2023-02-16T10:38:25;29.20;;;16.73;;
17171;SDS011;8701;50.150;8.756;2023-02-16T10:42:33;30.53;;;16.37;;
17171;SDS011;8701;50.150;8.756;2023-02-16T10:46:42;33.30;;;17.10;;
17171;SDS011;8701;50.150;8.756;2023-02-16T10:50:51;30.10;;;17.10;;
17171;SDS011;8701;50.150;8.756;2023-02-16T10:54:59;30.10;;;17.80;;
17171;SDS011;8701;50.150;8.756;2023-02-16T10:59:04;28.43;;;15.53;;
17171;SDS011;8701;50.150;8.756;2023-02-16T11:03:09;29.80;;;16.90;;
17171;SDS011;8701;50.150;8.756;2023-02-16T11:07:15;35.07;;;16.67;;
17171;SDS011;8701;50.150;8.756;2023-02-16T11:11:21;31.50;;;16.77;;
17171;SDS011;8701;50.150;8.756;2023-02-16T11:15:25;31.83;;;18.47;;
17171;SDS011;8701;50.150;8.756;2023-02-16T11:19:30;29.80;;;18.50;;
17171;SDS011;8701;50.150;8.756;2023-02-16T11:23:33;34.33;;;17.90;;
17171;SDS011;8701;50.150;8.756;2023-02-16T11:27:38;34.63;;;16.47;;
17171;SDS011;8701;50.150;8.756;2023-02-16T11:31:50;32.40;;;17.13;;
17171;SDS011;8701;50.150;8.756;2023-02-16T11:35:53;28.27;;;17.20;;
17171;SDS011;8701;50.150;8.756;2023-02-16T11:39:56;28.70;;;16.93;;
17171;SDS011;8701;50.150;8.756;2023-02-16T11:44:02;29.10;;;17.33;;
17171;SDS011;8701;50.150;8.756;2023-02-16T11:48:05;26.40;;;16.40;;
17171;SDS011;8701;50.150;8.756;2023-02-16T11:52:19;32.43;;;17.10;;
17171;SDS011;8701;50.150;8.756;2023-02-16T11:56:27;31.40;;;18.27;;
17171;SDS011;8701;50.150;8.756;2023-02-16T12:00:32;29.10;;;17.80;;
17171;SDS011;8701;50.150;8.756;2023-02-16T12:04:39;30.50;;;17.33;;
17171;SDS011;8701;50.150;8.756;2023-02-16T12:08:56;26.10;;;16.40;;
17171;SDS011;8701;50.150;8.756;2023-02-16T12:13:09;30.80;;;18.03;;
17171;SDS011;8701;50.150;8.756;2023-02-16T12:17:23;26.10;;;16.27;;
17171;SDS011;8701;50.150;8.756;2023-02-16T12:21:36;30.43;;;19.37;;
17171;SDS011;8701;50.150;8.756;2023-02-16T12:25:46;32.00;;;21.33;;
17171;SDS011;8701;50.150;8.756;2023-02-16T12:29:57;32.07;;;20.50;;
17171;SDS011;8701;50.150;8.756;2023-02-16T12:34:07;38.17;;;20.07;;
17171;SDS011;8701;50.150;8.756;2023-02-16T12:38:19;26.03;;;18.20;;
17171;SDS011;8701;50.150;8.756;2023-02-16T12:42:37;31.00;;;20.90;;
17171;SDS011;8701;50.150;8.756;2023-02-16T12:46:55;31.57;;;20.77;;
17171;SDS011;8701;50.150;8.756;2023-02-16T12:51:05;31.37;;;20.00;;
17171;SDS011;8701;50.150;8.756;2023-02-16T12:55:16;33.60;;;21.70;;
17171;SDS011;8701;50.150;8.756;2023-02-16T12:59:23;31.80;;;19.67;;
17171;SDS011;8701;50.150;8.756;2023-02-16T13:03:33;23.97;;;15.83;;
17171;SDS011;8701;50.150;8.756;2023-02-16T13:07:41;35.03;;;21.60;;
17171;SDS011;8701;50.150;8.756;2023-02-16T13:11:47;35.87;;;21.20;;
17171;SDS011;8701;50.150;8.756;2023-02-16T13:15:55;31.40;;;19.33;;
17171;SDS011;8701;50.150;8.756;2023-02-16T13:20:02;34.20;;;21.40;;
17171;SDS011;8701;50.150;8.756;2023-02-16T13:24:14;34.20;;;20.23;;
17171;SDS011;8701;50.150;8.756;2023-02-16T13:28:30;35.60;;;22.17;;
17171;SDS011;8701;50.150;8.756;2023-02-16T13:32:45;36.20;;;20.40;;
17171;SDS011;8701;50.150;8.756;2023-02-16T13:37:08;32.07;;;19.97;;
17171;SDS011;8701;50.150;8.756;2023-02-16T13:45:45;33.80;;;20.70;;
17171;SDS011;8701;50.150;8.756;2023-02-16T13:49:56;30.17;;;16.83;;
17171;SDS011;8701;50.150;8.756;2023-02-16T13:54:00;32.67;;;20.20;;
17171;SDS011;8701;50.150;8.756;2023-02-16T13:58:06;26.97;;;17.13;;
17171;SDS011;8701;50.150;8.756;2023-02-16T14:11:42;36.83;;;21.17;;
17171;SDS011;8701;50.150;8.756;2023-02-16T14:16:27;36.70;;;20.60;;
17171;SDS011;8701;50.150;8.756;2023-02-16T14:20:32;34.30;;;20.13;;
17171;SDS011;8701;50.150;8.756;2023-02-16T14:24:34;39.40;;;21.70;;
17171;SDS011;8701;50.150;8.756;2023-02-16T14:28:57;33.17;;;20.57;;
17171;SDS011;8701;50.150;8.756;2023-02-16T14:33:15;33.03;;;21.00;;
17171;SDS011;8701;50.150;8.756;2023-02-16T14:37:27;39.77;;;21.43;;
17171;SDS011;8701;50.150;8.756;2023-02-16T14:41:32;33.67;;;20.70;;
17171;SDS011;8701;50.150;8.756;2023-02-16T14:45:41;36.73;;;22.30;;
17171;SDS011;8701;50.150;8.756;2023-02-16T14:50:10;35.10;;;21.30;;
17171;SDS011;8701;50.150;8.756;2023-02-16T14:54:31;39.40;;;20.10;;
17171;SDS011;8701;50.150;8.756;2023-02-16T14:58:53;37.57;;;23.40;;
17171;SDS011;8701;50.150;8.756;2023-02-16T15:02:59;35.13;;;22.10;;
17171;SDS011;8701;50.150;8.756;2023-02-16T15:07:04;33.37;;;19.20;;
17171;SDS011;8701;50.150;8.756;2023-02-16T15:11:12;37.53;;;20.60;;
17171;SDS011;8701;50.150;8.756;2023-02-16T15:15:17;34.07;;;21.40;;
17171;SDS011;8701;50.150;8.756;2023-02-16T15:19:24;37.83;;;21.03;;
17171;SDS011;8701;50.150;8.756;2023-02-16T15:23:33;35.57;;;22.40;;
17171;SDS011;8701;50.150;8.756;2023-02-16T15:27:36;40.00;;;22.30;;
17171;SDS011;8701;50.150;8.756;2023-02-16T15:31:39;41.60;;;21.53;;
17171;SDS011;8701;50.150;8.756;2023-02-16T15:35:41;34.30;;;21.17;;
17171;SDS011;8701;50.150;8.756;2023-02-16T15:39:47;43.20;;;22.70;;
17171;SDS011;8701;50.150;8.756;2023-02-16T15:43:50;40.43;;;22.17;;
17171;SDS011;8701;50.150;8.756;2023-02-16T15:47:52;36.27;;;20.43;;
17171;SDS011;8701;50.150;8.756;2023-02-16T15:51:55;38.07;;;21.80;;
17171;SDS011;8701;50.150;8.756;2023-02-16T15:56:00;37.17;;;20.47;;
17171;SDS011;8701;50.150;8.756;2023-02-16T16:00:04;36.30;;;21.50;;
17171;SDS011;8701;50.150;8.756;2023-02-16T16:04:16;33.13;;;20.07;;
17171;SDS011;8701;50.150;8.756;2023-02-16T16:08:21;38.30;;;20.90;;
17171;SDS011;8701;50.150;8.756;2023-02-16T16:12:28;37.80;;;22.43;;
17171;SDS011;8701;50.150;8.756;2023-02-16T16:16:32;34.80;;;21.83;;
17171;SDS011;8701;50.150;8.756;2023-02-16T16:20:37;35.60;;;22.00;;
17171;SDS011;8701;50.150;8.756;2023-02-16T16:24:41;34.80;;;21.00;;
17171;SDS011;8701;50.150;8.756;2023-02-16T16:28:48;35.73;;;21.83;;
17171;SDS011;8701;50.150;8.756;2023-02-16T16:32:57;34.77;;;20.87;;
17171;SDS011;8701;50.150;8.756;2023-02-16T16:37:00;38.00;;;21.73;;
17171;SDS011;8701;50.150;8.756;2023-02-16T16:41:10;36.90;;;21.60;;
17171;SDS011;8701;50.150;8.756;2023-02-16T16:45:35;33.83;;;21.77;;
17171;SDS011;8701;50.150;8.756;2023-02-16T16:49:44;37.47;;;23.90;;
17171;SDS011;8701;50.150;8.756;2023-02-16T16:53:50;38.97;;;22.27;;
17171;SDS011;8701;50.150;8.756;2023-02-16T16:57:56;42.47;;;21.90;;
17171;SDS011;8701;50.150;8.756;2023-02-16T17:02:00;38.00;;;21.30;;
17171;SDS011;8701;50.150;8.756;2023-02-16T17:06:03;40.27;;;21.30;;
17171;SDS011;8701;50.150;8.756;2023-02-16T17:10:08;37.03;;;22.07;;
17171;SDS011;8701;50.150;8.756;2023-02-16T17:14:13;38.73;;;21.97;;
17171;SDS011;8701;50.150;8.756;2023-02-16T17:18:19;35.63;;;21.23;;
17171;SDS011;8701;50.150;8.756;2023-02-16T17:22:23;35.97;;;21.50;;
17171;SDS011;8701;50.150;8.756;2023-02-16T17:26:25;37.70;;;22.67;;
17171;SDS011;8701;50.150;8.756;2023-02-16T17:30:28;36.40;;;21.60;;
17171;SDS011;8701;50.150;8.756;2023-02-16T17:34:32;35.77;;;21.50;;
17171;SDS011;8701;50.150;8.756;2023-02-16T17:38:34;33.30;;;20.47;;
17171;SDS011;8701;50.150;8.756;2023-02-16T17:42:36;35.93;;;19.97;;
17171;SDS011;8701;50.150;8.756;2023-02-16T17:46:39;36.90;;;20.77;;
17171;SDS011;8701;50.150;8.756;2023-02-16T17:50:42;37.17;;;20.73;;
17171;SDS011;8701;50.150;8.756;2023-02-16T17:58:51;35.07;;;21.40;;
17171;SDS011;8701;50.150;8.756;2023-02-16T18:02:54;41.50;;;23.63;;
17171;SDS011;8701;50.150;8.756;2023-02-16T18:06:57;42.60;;;24.73;;
17171;SDS011;8701;50.150;8.756;2023-02-16T18:10:59;45.60;;;26.10;;
17171;SDS011;8701;50.150;8.756;2023-02-16T18:15:02;38.67;;;23.10;;
17171;SDS011;8701;50.150;8.756;2023-02-16T18:19:05;40.77;;;23.53;;
17171;SDS011;8701;50.150;8.756;2023-02-16T18:23:11;41.40;;;25.57;;
17171;SDS011;8701;50.150;8.756;2023-02-16T18:27:14;41.33;;;24.10;;
17171;SDS011;8701;50.150;8.756;2023-02-16T18:31:26;41.13;;;24.67;;
17171;SDS011;8701;50.150;8.756;2023-02-16T18:35:29;40.57;;;24.10;;
17171;SDS011;8701;50.150;8.756;2023-02-16T18:39:34;37.20;;;23.50;;
17171;SDS011;8701;50.150;8.756;2023-02-16T18:43:36;35.97;;;21.97;;
17171;SDS011;8701;50.150;8.756;2023-02-16T18:47:39;39.37;;;22.90;;
17171;SDS011;8701;50.150;8.756;2023-02-16T18:51:42;39.60;;;23.50;;
17171;SDS011;8701;50.150;8.756;2023-02-16T18:55:53;37.83;;;23.60;;
17171;SDS011;8701;50.150;8.756;2023-02-16T18:59:55;44.57;;;23.60;;
17171;SDS011;8701;50.150;8.756;2023-02-16T19:03:59;42.23;;;24.70;;
17171;SDS011;8701;50.150;8.756;2023-02-16T19:08:03;38.07;;;23.57;;
17171;SDS011;8701;50.150;8.756;2023-02-16T19:12:07;44.47;;;24.10;;
17171;SDS011;8701;50.150;8.756;2023-02-16T19:16:09;41.50;;;23.70;;
17171;SDS011;8701;50.150;8.756;2023-02-16T19:20:12;37.50;;;22.83;;
17171;SDS011;8701;50.150;8.756;2023-02-16T19:24:17;46.57;;;23.73;;
17171;SDS011;8701;50.150;8.756;2023-02-16T19:28:21;35.37;;;21.47;;
17171;SDS011;8701;50.150;8.756;2023-02-16T19:32:23;38.87;;;23.17;;
17171;SDS011;8701;50.150;8.756;2023-02-16T19:36:26;37.77;;;22.87;;
17171;SDS011;8701;50.150;8.756;2023-02-16T19:44:42;37.97;;;21.40;;
17171;SDS011;8701;50.150;8.756;2023-02-16T19:48:44;36.60;;;20.97;;
17171;SDS011;8701;50.150;8.756;2023-02-16T19:52:47;33.17;;;21.43;;
17171;SDS011;8701;50.150;8.756;2023-02-16T19:56:49;34.40;;;20.57;;
17171;SDS011;8701;50.150;8.756;2023-02-16T20:01:05;31.90;;;20.30;;
17171;SDS011;8701;50.150;8.756;2023-02-16T20:05:10;35.57;;;21.40;;
17171;SDS011;8701;50.150;8.756;2023-02-16T20:09:13;33.23;;;20.60;;
17171;SDS011;8701;50.150;8.756;2023-02-16T20:13:17;35.37;;;20.43;;
17171;SDS011;8701;50.150;8.756;2023-02-16T20:17:20;32.73;;;20.80;;
17171;SDS011;8701;50.150;8.756;2023-02-16T20:21:24;32.73;;;20.63;;
17171;SDS011;8701;50.150;8.756;2023-02-16T20:25:27;31.40;;;20.63;;
17171;SDS011;8701;50.150;8.756;2023-02-16T20:29:29;40.30;;;22.30;;
17171;SDS011;8701;50.150;8.756;2023-02-16T20:33:33;34.70;;;20.93;;
17171;SDS011;8701;50.150;8.756;2023-02-16T20:37:36;35.23;;;20.27;;
17171;SDS011;8701;50.150;8.756;2023-02-16T20:41:38;38.97;;;23.53;;
17171;SDS011;8701;50.150;8.756;2023-02-16T20:45:43;34.40;;;21.60;;
17171;SDS011;8701;50.150;8.756;2023-02-16T20:49:47;40.80;;;24.50;;
17171;SDS011;8701;50.150;8.756;2023-02-16T20:53:52;39.40;;;22.77;;
17171;SDS011;8701;50.150;8.756;2023-02-16T20:57:55;45.33;;;23.90;;
17171;SDS011;8701;50.150;8.756;2023-02-16T21:02:00;40.20;;;24.63;;
17171;SDS011;8701;50.150;8.756;2023-02-16T21:06:05;41.87;;;23.63;;
17171;SDS011;8701;50.150;8.756;2023-02-16T21:10:08;36.37;;;23.63;;
17171;SDS011;8701;50.150;8.756;2023-02-16T21:14:12;40.10;;;23.80;;
17171;SDS011;8701;50.150;8.756;2023-02-16T21:18:14;35.90;;;21.67;;
17171;SDS011;8701;50.150;8.756;2023-02-16T21:22:18;35.37;;;21.53;;
17171;SDS011;8701;50.150;8.756;2023-02-16T21:26:21;35.67;;;22.30;;
17171;SDS011;8701;50.150;8.756;2023-02-16T21:30:24;37.77;;;22.10;;
17171;SDS011;8701;50.150;8.756;2023-02-16T21:34:27;34.63;;;20.87;;
17171;SDS011;8701;50.150;8.756;2023-02-16T21:38:30;35.77;;;22.00;;
17171;SDS011;8701;50.150;8.756;2023-02-16T21:42:33;39.37;;;24.23;;
17171;SDS011;8701;50.150;8.756;2023-02-16T21:46:36;34.10;;;21.80;;
17171;SDS011;8701;50.150;8.756;2023-02-16T21:50:40;37.83;;;20.90;;
17171;SDS011;8701;50.150;8.756;2023-02-16T21:54:44;40.83;;;23.50;;
17171;SDS011;8701;50.150;8.756;2023-02-16T21:59:05;38.77;;;23.43;;
17171;SDS011;8701;50.150;8.756;2023-02-16T22:03:10;35.70;;;20.23;;
17171;SDS011;8701;50.150;8.756;2023-02-16T22:07:13;36.50;;;21.70;;
17171;SDS011;8701;50.150;8.756;2023-02-16T22:11:18;34.07;;;20.57;;
17171;SDS011;8701;50.150;8.756;2023-02-16T22:15:22;34.47;;;21.23;;
17171;SDS011;8701;50.150;8.756;2023-02-16T22:19:26;37.87;;;20.20;;
17171;SDS011;8701;50.150;8.756;2023-02-16T22:23:29;31.47;;;20.20;;
17171;SDS011;8701;50.150;8.756;2023-02-16T22:27:33;41.17;;;22.47;;
17171;SDS011;8701;50.150;8.756;2023-02-16T22:31:35;36.37;;;19.40;;
17171;SDS011;8701;50.150;8.756;2023-02-16T22:35:37;29.80;;;19.97;;
17171;SDS011;8701;50.150;8.756;2023-02-16T22:39:40;30.83;;;19.10;;
17171;SDS011;8701;50.150;8.756;2023-02-16T22:43:43;30.27;;;19.37;;
17171;SDS011;8701;50.150;8.756;2023-02-16T22:47:45;29.30;;;18.40;;
17171;SDS011;8701;50.150;8.756;2023-02-16T22:51:50;29.63;;;18.50;;
17171;SDS011;8701;50.150;8.756;2023-02-16T22:55:52;30.13;;;18.50;;
17171;SDS011;8701;50.150;8.756;2023-02-16T22:59:56;32.07;;;17.77;;
17171;SDS011;8701;50.150;8.756;2023-02-16T23:03:59;27.67;;;17.87;;
17171;SDS011;8701;50.150;8.756;2023-02-16T23:08:02;28.10;;;18.03;;
17171;SDS011;8701;50.150;8.756;2023-02-16T23:12:04;30.57;;;19.10;;
17171;SDS011;8701;50.150;8.756;2023-02-16T23:16:10;29.63;;;19.03;;
17171;SDS011;8701;50.150;8.756;2023-02-16T23:20:14;28.63;;;17.83;;
17171;SDS011;8701;50.150;8.756;2023-02-16T23:24:17;25.37;;;17.47;;
17171;SDS011;8701;50.150;8.756;2023-02-16T23:28:20;33.50;;;19.50;;
17171;SDS011;8701;50.150;8.756;2023-02-16T23:32:24;32.07;;;19.03;;
17171;SDS011;8701;50.150;8.756;2023-02-16T23:36:26;29.40;;;19.70;;
17171;SDS011;8701;50.150;8.756;2023-02-16T23:40:29;30.27;;;18.97;;
17171;SDS011;8701;50.150;8.756;2023-02-16T23:44:31;30.57;;;18.90;;
17171;SDS011;8701;50.150;8.756;2023-02-16T23:48:35;31.07;;;18.07;;
17171;SDS011;8701;50.150;8.756;2023-02-16T23:52:37;29.87;;;19.03;;
17171;SDS011;8701;50.150;8.756;2023-02-16T23:56:40;29.20;;;17.90;;
